sensor_id;sensor_type;location;lat;lon;timestamp;temperature;humidity
16384;DHT22;8301;51.440;6.610;2023-04-15T00:01:07;6.40;1.00
16384;DHT22;8301;51.440;6.610;2023-04-15T00:03:34;6.30;1.00
16384;DHT22;8301;51.440;6.610;2023-04-15T00:06:04;6.20;99.90
16384;DHT22;8301;51.440;6.610;2023-04-15T00:08:31;6.10;1.00
16384;DHT22;8301;51.440;6.610;2023-04-15T00:10:59;6.10;95.40
16384;DHT22;8301;51.440;6.610;2023-04-15T00:13:27;6.10;1.00
16384;DHT22;8301;51.440;6.610;2023-04-15T00:15:54;6.10;1.00
16384;DHT22;8301;51.440;6.610;2023-04-15T00:18:21;6.10;1.00
16384;DHT22;8301;51.440;6.610;2023-04-15T00:20:48;6.10;1.00
16384;DHT22;8301;51.440;6.610;2023-04-15T00:23:15;6.10;50.60
16384;DHT22;8301;51.440;6.610;2023-04-15T00:25:42;6.00;20.50
16384;DHT22;8301;51.440;6.610;2023-04-15T00:28:09;6.00;1.00
16384;DHT22;8301;51.440;6.610;2023-04-15T00:30:36;6.10;1.00
16384;DHT22;8301;51.440;6.610;2023-04-15T00:33:03;6.10;1.00
16384;DHT22;8301;51.440;6.610;2023-04-15T00:35:31;6.00;1.00
16384;DHT22;8301;51.440;6.610;2023-04-15T00:37:58;6.10;1.00
16384;DHT22;8301;51.440;6.610;2023-04-15T00:40:25;6.10;1.00
16384;DHT22;8301;51.440;6.610;2023-04-15T00:42:52;6.00;99.90
16384;DHT22;8301;51.440;6.610;2023-04-15T00:45:19;6.10;1.00
16384;DHT22;8301;51.440;6.610;2023-04-15T00:47:46;6.00;99.90
16384;DHT22;8301;51.440;6.610;2023-04-15T00:50:13;6.00;1.00
16384;DHT22;8301;51.440;6.610;2023-04-15T00:52:40;5.90;1.00
16384;DHT22;8301;51.440;6.610;2023-04-15T00:55:08;6.10;1.00
16384;DHT22;8301;51.440;6.610;2023-04-15T00:57:36;6.20;1.00
16384;DHT22;8301;51.440;6.610;2023-04-15T01:00:03;6.20;1.00
16384;DHT22;8301;51.440;6.610;2023-04-15T01:02:33;6.20;99.90
16384;DHT22;8301;51.440;6.610;2023-04-15T01:05:01;6.20;99.90
16384;DHT22;8301;51.440;6.610;2023-04-15T01:07:29;6.20;99.90
16384;DHT22;8301;51.440;6.610;2023-04-15T01:09:56;6.10;99.90
16384;DHT22;8301;51.440;6.610;2023-04-15T01:12:23;6.10;1.00
16384;DHT22;8301;51.440;6.610;2023-04-15T01:14:53;6.00;1.00
16384;DHT22;8301;51.440;6.610;2023-04-15T01:17:19;6.10;99.90
16384;DHT22;8301;51.440;6.610;2023-04-15T01:19:50;6.10;1.00
16384;DHT22;8301;51.440;6.610;2023-04-15T01:22:17;6.00;86.30
16384;DHT22;8301;51.440;6.610;2023-04-15T01:24:46;6.00;1.00
16384;DHT22;8301;51.440;6.610;2023-04-15T01:27:12;6.10;1.00
16384;DHT22;8301;51.440;6.610;2023-04-15T01:29:39;6.00;19.50
16384;DHT22;8301;51.440;6.610;2023-04-15T01:32:06;6.00;99.90
16384;DHT22;8301;51.440;6.610;2023-04-15T01:34:33;6.20;1.00
16384;DHT22;8301;51.440;6.610;2023-04-15T01:37:01;6.20;99.90
16384;DHT22;8301;51.440;6.610;2023-04-15T01:39:28;6.20;1.00
16384;DHT22;8301;51.440;6.610;2023-04-15T01:41:55;6.20;1.00
16384;DHT22;8301;51.440;6.610;2023-04-15T01:44:23;6.20;1.00
16384;DHT22;8301;51.440;6.610;2023-04-15T01:46:50;6.10;1.00
16384;DHT22;8301;51.440;6.610;2023-04-15T01:49:17;6.10;99.90
16384;DHT22;8301;51.440;6.610;2023-04-15T01:51:44;6.10;1.00
16384;DHT22;8301;51.440;6.610;2023-04-15T01:54:11;6.10;95.30
16384;DHT22;8301;51.440;6.610;2023-04-15T01:56:37;6.10;1.00
16384;DHT22;8301;51.440;6.610;2023-04-15T01:59:04;6.10;1.00
16384;DHT22;8301;51.440;6.610;2023-04-15T02:01:34;6.10;1.00
16384;DHT22;8301;51.440;6.610;2023-04-15T02:04:01;6.20;1.00
16384;DHT22;8301;51.440;6.610;2023-04-15T02:06:28;6.20;1.00
16384;DHT22;8301;51.440;6.610;2023-04-15T02:08:55;6.30;1.00
16384;DHT22;8301;51.440;6.610;2023-04-15T02:11:22;6.30;99.90
16384;DHT22;8301;51.440;6.610;2023-04-15T02:13:49;6.40;1.00
16384;DHT22;8301;51.440;6.610;2023-04-15T02:16:16;6.40;1.00
16384;DHT22;8301;51.440;6.610;2023-04-15T02:18:43;6.40;99.90
16384;DHT22;8301;51.440;6.610;2023-04-15T02:21:10;6.50;58.10
16384;DHT22;8301;51.440;6.610;2023-04-15T02:23:37;6.50;6.80
16384;DHT22;8301;51.440;6.610;2023-04-15T02:26:04;6.40;94.20
16384;DHT22;8301;51.440;6.610;2023-04-15T02:28:31;6.40;1.00
16384;DHT22;8301;51.440;6.610;2023-04-15T02:30:58;6.50;1.00
16384;DHT22;8301;51.440;6.610;2023-04-15T02:33:26;6.50;99.90
16384;DHT22;8301;51.440;6.610;2023-04-15T02:35:53;6.50;1.00
16384;DHT22;8301;51.440;6.610;2023-04-15T02:38:22;6.60;99.90
16384;DHT22;8301;51.440;6.610;2023-04-15T02:40:48;6.60;1.00
16384;DHT22;8301;51.440;6.610;2023-04-15T02:43:16;6.50;1.00
16384;DHT22;8301;51.440;6.610;2023-04-15T02:45:43;6.50;1.00
16384;DHT22;8301;51.440;6.610;2023-04-15T02:50:42;6.40;1.00
16384;DHT22;8301;51.440;6.610;2023-04-15T02:53:09;6.30;99.90
16384;DHT22;8301;51.440;6.610;2023-04-15T02:55:36;6.30;1.00
16384;DHT22;8301;51.440;6.610;2023-04-15T02:58:02;6.20;99.90
16384;DHT22;8301;51.440;6.610;2023-04-15T03:00:30;6.20;1.00
16384;DHT22;8301;51.440;6.610;2023-04-15T03:02:57;6.10;99.90
16384;DHT22;8301;51.440;6.610;2023-04-15T03:05:24;6.10;99.90
16384;DHT22;8301;51.440;6.610;2023-04-15T03:07:51;6.10;99.90
16384;DHT22;8301;51.440;6.610;2023-04-15T03:10:18;6.10;99.90
16384;DHT22;8301;51.440;6.610;2023-04-15T03:12:45;6.10;1.00
16384;DHT22;8301;51.440;6.610;2023-04-15T03:15:13;6.30;1.00
16384;DHT22;8301;51.440;6.610;2023-04-15T03:17:40;6.40;99.90
16384;DHT22;8301;51.440;6.610;2023-04-15T03:20:07;6.40;1.00
16384;DHT22;8301;51.440;6.610;2023-04-15T03:22:35;6.40;1.00
16384;DHT22;8301;51.440;6.610;2023-04-15T03:25:02;6.50;1.00
16384;DHT22;8301;51.440;6.610;2023-04-15T03:27:28;6.40;1.00
16384;DHT22;8301;51.440;6.610;2023-04-15T03:29:55;6.40;1.00
16384;DHT22;8301;51.440;6.610;2023-04-15T03:32:23;6.50;1.00
16384;DHT22;8301;51.440;6.610;2023-04-15T03:34:50;6.60;99.90
16384;DHT22;8301;51.440;6.610;2023-04-15T03:37:17;6.60;1.00
16384;DHT22;8301;51.440;6.610;2023-04-15T03:39:44;6.60;99.90
16384;DHT22;8301;51.440;6.610;2023-04-15T03:42:11;6.60;99.90
16384;DHT22;8301;51.440;6.610;2023-04-15T03:44:38;6.70;76.30
16384;DHT22;8301;51.440;6.610;2023-04-15T03:47:05;6.70;99.90
16384;DHT22;8301;51.440;6.610;2023-04-15T03:49:32;6.70;1.00
16384;DHT22;8301;51.440;6.610;2023-04-15T03:51:59;6.60;1.00
16384;DHT22;8301;51.440;6.610;2023-04-15T03:54:26;6.60;1.00
16384;DHT22;8301;51.440;6.610;2023-04-15T03:56:52;6.70;1.00
16384;DHT22;8301;51.440;6.610;2023-04-15T03:59:19;6.70;57.80
16384;DHT22;8301;51.440;6.610;2023-04-15T04:01:46;6.70;1.00
16384;DHT22;8301;51.440;6.610;2023-04-15T04:04:13;6.70;1.00
16384;DHT22;8301;51.440;6.610;2023-04-15T04:06:40;6.60;1.00
16384;DHT22;8301;51.440;6.610;2023-04-15T04:09:08;6.70;1.00
16384;DHT22;8301;51.440;6.610;2023-04-15T04:11:35;6.60;1.00
16384;DHT22;8301;51.440;6.610;2023-04-15T04:14:02;6.60;99.90
16384;DHT22;8301;51.440;6.610;2023-04-15T04:16:29;6.50;99.90
16384;DHT22;8301;51.440;6.610;2023-04-15T04:18:56;6.50;99.90
16384;DHT22;8301;51.440;6.610;2023-04-15T04:21:22;6.50;1.00
16384;DHT22;8301;51.440;6.610;2023-04-15T04:26:19;6.40;99.90
16384;DHT22;8301;51.440;6.610;2023-04-15T04:28:46;6.50;1.00
16384;DHT22;8301;51.440;6.610;2023-04-15T04:31:13;6.40;1.00
16384;DHT22;8301;51.440;6.610;2023-04-15T04:33:39;6.40;1.00
16384;DHT22;8301;51.440;6.610;2023-04-15T04:36:06;6.30;1.00
16384;DHT22;8301;51.440;6.610;2023-04-15T04:38:33;6.40;1.00
16384;DHT22;8301;51.440;6.610;2023-04-15T04:41:01;6.40;99.90
16384;DHT22;8301;51.440;6.610;2023-04-15T04:43:28;6.30;1.00
16384;DHT22;8301;51.440;6.610;2023-04-15T04:45:55;6.30;1.00
16384;DHT22;8301;51.440;6.610;2023-04-15T04:48:25;6.30;1.00
16384;DHT22;8301;51.440;6.610;2023-04-15T04:50:52;6.20;57.50
16384;DHT22;8301;51.440;6.610;2023-04-15T04:53:19;6.40;1.00
16384;DHT22;8301;51.440;6.610;2023-04-15T04:55:46;6.40;1.00
16384;DHT22;8301;51.440;6.610;2023-04-15T04:58:13;6.40;1.00
16384;DHT22;8301;51.440;6.610;2023-04-15T05:00:40;6.30;1.00
16384;DHT22;8301;51.440;6.610;2023-04-15T05:03:06;6.40;1.00
16384;DHT22;8301;51.440;6.610;2023-04-15T05:05:33;6.40;1.00
16384;DHT22;8301;51.440;6.610;2023-04-15T05:08:01;6.50;1.00
16384;DHT22;8301;51.440;6.610;2023-04-15T05:10:28;6.60;1.00
16384;DHT22;8301;51.440;6.610;2023-04-15T05:12:55;6.60;1.00
16384;DHT22;8301;51.440;6.610;2023-04-15T05:15:22;6.70;1.00
16384;DHT22;8301;51.440;6.610;2023-04-15T05:17:48;6.70;99.90
16384;DHT22;8301;51.440;6.610;2023-04-15T05:20:16;6.70;1.00
16384;DHT22;8301;51.440;6.610;2023-04-15T05:22:46;6.70;99.90
16384;DHT22;8301;51.440;6.610;2023-04-15T05:25:12;6.70;99.90
16384;DHT22;8301;51.440;6.610;2023-04-15T05:27:39;6.70;1.00
16384;DHT22;8301;51.440;6.610;2023-04-15T05:30:07;6.70;1.00
16384;DHT22;8301;51.440;6.610;2023-04-15T05:32:35;6.80;99.90
16384;DHT22;8301;51.440;6.610;2023-04-15T05:37:32;6.90;99.90
16384;DHT22;8301;51.440;6.610;2023-04-15T05:39:59;6.90;99.90
16384;DHT22;8301;51.440;6.610;2023-04-15T05:42:26;6.90;99.90
16384;DHT22;8301;51.440;6.610;2023-04-15T05:44:53;6.90;99.90
16384;DHT22;8301;51.440;6.610;2023-04-15T05:47:20;6.90;99.90
16384;DHT22;8301;51.440;6.610;2023-04-15T05:49:47;6.90;99.90
16384;DHT22;8301;51.440;6.610;2023-04-15T05:52:14;7.00;99.90
16384;DHT22;8301;51.440;6.610;2023-04-15T05:54:41;7.00;99.90
16384;DHT22;8301;51.440;6.610;2023-04-15T05:57:15;7.10;99.90
16384;DHT22;8301;51.440;6.610;2023-04-15T05:59:45;7.10;1.00
16384;DHT22;8301;51.440;6.610;2023-04-15T06:02:12;7.10;99.90
16384;DHT22;8301;51.440;6.610;2023-04-15T06:04:39;7.20;99.90
16384;DHT22;8301;51.440;6.610;2023-04-15T06:07:06;7.20;1.00
16384;DHT22;8301;51.440;6.610;2023-04-15T06:09:32;7.30;1.00
16384;DHT22;8301;51.440;6.610;2023-04-15T06:11:59;7.20;98.30
16384;DHT22;8301;51.440;6.610;2023-04-15T06:14:26;7.40;1.00
16384;DHT22;8301;51.440;6.610;2023-04-15T06:16:53;7.40;14.00
16384;DHT22;8301;51.440;6.610;2023-04-15T06:19:26;7.50;85.00
16384;DHT22;8301;51.440;6.610;2023-04-15T06:21:53;7.60;1.00
16384;DHT22;8301;51.440;6.610;2023-04-15T06:24:26;7.70;1.00
16384;DHT22;8301;51.440;6.610;2023-04-15T06:26:54;7.70;1.00
16384;DHT22;8301;51.440;6.610;2023-04-15T06:29:20;7.80;99.90
16384;DHT22;8301;51.440;6.610;2023-04-15T06:31:47;7.90;1.00
16384;DHT22;8301;51.440;6.610;2023-04-15T06:34:14;8.00;99.90
16384;DHT22;8301;51.440;6.610;2023-04-15T06:36:41;8.10;1.00
16384;DHT22;8301;51.440;6.610;2023-04-15T06:39:08;8.10;99.90
16384;DHT22;8301;51.440;6.610;2023-04-15T06:41:35;8.10;99.90
16384;DHT22;8301;51.440;6.610;2023-04-15T06:44:02;8.00;1.00
16384;DHT22;8301;51.440;6.610;2023-04-15T06:46:29;8.20;1.00
16384;DHT22;8301;51.440;6.610;2023-04-15T06:48:55;8.30;1.00
16384;DHT22;8301;51.440;6.610;2023-04-15T06:51:22;8.30;99.90
16384;DHT22;8301;51.440;6.610;2023-04-15T06:53:49;8.30;99.90
16384;DHT22;8301;51.440;6.610;2023-04-15T06:56:17;8.40;32.80
16384;DHT22;8301;51.440;6.610;2023-04-15T06:58:44;8.40;1.00
16384;DHT22;8301;51.440;6.610;2023-04-15T07:01:13;8.50;1.00
16384;DHT22;8301;51.440;6.610;2023-04-15T07:03:40;8.70;1.00
16384;DHT22;8301;51.440;6.610;2023-04-15T07:06:07;8.80;1.00
16384;DHT22;8301;51.440;6.610;2023-04-15T07:08:35;8.90;99.90
16384;DHT22;8301;51.440;6.610;2023-04-15T07:11:01;9.00;46.00
16384;DHT22;8301;51.440;6.610;2023-04-15T07:13:29;9.10;1.00
16384;DHT22;8301;51.440;6.610;2023-04-15T07:15:56;9.30;1.00
16384;DHT22;8301;51.440;6.610;2023-04-15T07:18:23;9.40;99.90
16384;DHT22;8301;51.440;6.610;2023-04-15T07:20:50;9.40;1.00
16384;DHT22;8301;51.440;6.610;2023-04-15T07:23:17;9.50;1.00
16384;DHT22;8301;51.440;6.610;2023-04-15T07:25:44;9.50;1.00
16384;DHT22;8301;51.440;6.610;2023-04-15T07:28:10;9.60;99.90
16384;DHT22;8301;51.440;6.610;2023-04-15T07:30:37;9.80;99.90
16384;DHT22;8301;51.440;6.610;2023-04-15T07:33:04;9.90;1.00
16384;DHT22;8301;51.440;6.610;2023-04-15T07:35:32;9.80;1.00
16384;DHT22;8301;51.440;6.610;2023-04-15T07:37:59;9.90;99.90
16384;DHT22;8301;51.440;6.610;2023-04-15T07:42:56;10.20;99.90
16384;DHT22;8301;51.440;6.610;2023-04-15T07:45:30;10.30;99.90
16384;DHT22;8301;51.440;6.610;2023-04-15T07:47:57;10.20;1.00
16384;DHT22;8301;51.440;6.610;2023-04-15T07:50:27;10.50;1.00
16384;DHT22;8301;51.440;6.610;2023-04-15T07:52:59;10.40;1.00
16384;DHT22;8301;51.440;6.610;2023-04-15T07:55:27;10.50;1.00
16384;DHT22;8301;51.440;6.610;2023-04-15T07:57:55;10.60;1.00
16384;DHT22;8301;51.440;6.610;2023-04-15T08:00:22;10.80;1.00
16384;DHT22;8301;51.440;6.610;2023-04-15T08:02:52;10.90;1.00
16384;DHT22;8301;51.440;6.610;2023-04-15T08:05:21;10.70;1.00
16384;DHT22;8301;51.440;6.610;2023-04-15T08:07:48;10.80;1.00
16384;DHT22;8301;51.440;6.610;2023-04-15T08:10:14;10.50;1.00
16384;DHT22;8301;51.440;6.610;2023-04-15T08:12:42;10.60;1.00
16384;DHT22;8301;51.440;6.610;2023-04-15T08:15:10;10.80;1.00
16384;DHT22;8301;51.440;6.610;2023-04-15T08:17:43;10.90;1.00
16384;DHT22;8301;51.440;6.610;2023-04-15T08:20:13;10.90;1.00
16384;DHT22;8301;51.440;6.610;2023-04-15T08:22:40;10.90;1.00
16384;DHT22;8301;51.440;6.610;2023-04-15T08:25:07;11.00;1.00
16384;DHT22;8301;51.440;6.610;2023-04-15T08:27:36;11.00;1.00
16384;DHT22;8301;51.440;6.610;2023-04-15T08:30:04;10.90;1.00
16384;DHT22;8301;51.440;6.610;2023-04-15T08:32:46;11.00;1.00
16384;DHT22;8301;51.440;6.610;2023-04-15T08:35:16;11.20;1.00
16384;DHT22;8301;51.440;6.610;2023-04-15T08:37:49;11.10;1.00
16384;DHT22;8301;51.440;6.610;2023-04-15T08:40:18;11.30;1.00
16384;DHT22;8301;51.440;6.610;2023-04-15T08:42:46;11.50;1.00
16384;DHT22;8301;51.440;6.610;2023-04-15T08:45:14;11.40;1.00
16384;DHT22;8301;51.440;6.610;2023-04-15T08:47:41;11.20;1.00
16384;DHT22;8301;51.440;6.610;2023-04-15T08:50:08;11.20;1.00
16384;DHT22;8301;51.440;6.610;2023-04-15T08:52:36;11.40;1.00
16384;DHT22;8301;51.440;6.610;2023-04-15T08:55:09;11.60;1.00
16384;DHT22;8301;51.440;6.610;2023-04-15T08:57:37;11.70;1.00
16384;DHT22;8301;51.440;6.610;2023-04-15T09:00:04;11.90;1.00
16384;DHT22;8301;51.440;6.610;2023-04-15T09:02:32;11.60;1.00
16384;DHT22;8301;51.440;6.610;2023-04-15T09:04:59;11.70;1.00
16384;DHT22;8301;51.440;6.610;2023-04-15T09:07:25;11.80;1.00
16384;DHT22;8301;51.440;6.610;2023-04-15T09:09:52;11.70;1.00
16384;DHT22;8301;51.440;6.610;2023-04-15T09:12:19;11.80;1.00
16384;DHT22;8301;51.440;6.610;2023-04-15T09:14:46;11.90;1.00
16384;DHT22;8301;51.440;6.610;2023-04-15T09:17:14;11.90;99.90
16384;DHT22;8301;51.440;6.610;2023-04-15T09:19:43;11.60;1.00
16384;DHT22;8301;51.440;6.610;2023-04-15T09:22:10;11.80;1.00
16384;DHT22;8301;51.440;6.610;2023-04-15T09:24:39;11.80;1.00
16384;DHT22;8301;51.440;6.610;2023-04-15T09:27:07;11.90;1.00
16384;DHT22;8301;51.440;6.610;2023-04-15T09:29:34;11.90;1.00
16384;DHT22;8301;51.440;6.610;2023-04-15T09:32:11;12.00;1.00
16384;DHT22;8301;51.440;6.610;2023-04-15T09:34:47;11.90;1.00
16384;DHT22;8301;51.440;6.610;2023-04-15T09:37:14;11.50;1.00
16384;DHT22;8301;51.440;6.610;2023-04-15T09:39:49;11.50;1.00
16384;DHT22;8301;51.440;6.610;2023-04-15T09:42:22;11.90;1.00
16384;DHT22;8301;51.440;6.610;2023-04-15T09:44:50;11.90;1.00
16384;DHT22;8301;51.440;6.610;2023-04-15T09:47:30;12.20;1.00
16384;DHT22;8301;51.440;6.610;2023-04-15T09:49:58;12.30;1.00
16384;DHT22;8301;51.440;6.610;2023-04-15T09:52:32;11.90;1.00
16384;DHT22;8301;51.440;6.610;2023-04-15T09:54:59;11.90;1.00
16384;DHT22;8301;51.440;6.610;2023-04-15T09:57:36;12.00;1.00
16384;DHT22;8301;51.440;6.610;2023-04-15T09:59:57;11.80;1.00
16384;DHT22;8301;51.440;6.610;2023-04-15T10:02:30;11.90;1.00
16384;DHT22;8301;51.440;6.610;2023-04-15T10:04:57;11.90;1.00
16384;DHT22;8301;51.440;6.610;2023-04-15T10:07:25;11.80;1.00
16384;DHT22;8301;51.440;6.610;2023-04-15T10:09:52;11.60;1.00
16384;DHT22;8301;51.440;6.610;2023-04-15T10:12:20;11.70;1.00
16384;DHT22;8301;51.440;6.610;2023-04-15T10:14:49;11.80;1.00
16384;DHT22;8301;51.440;6.610;2023-04-15T10:17:17;11.80;1.00
16384;DHT22;8301;51.440;6.610;2023-04-15T10:19:44;11.70;1.00
16384;DHT22;8301;51.440;6.610;2023-04-15T10:22:11;11.80;1.00
16384;DHT22;8301;51.440;6.610;2023-04-15T10:24:42;11.90;1.00
16384;DHT22;8301;51.440;6.610;2023-04-15T10:27:10;12.00;1.00
16384;DHT22;8301;51.440;6.610;2023-04-15T10:29:37;12.30;1.00
16384;DHT22;8301;51.440;6.610;2023-04-15T10:32:04;12.40;1.00
16384;DHT22;8301;51.440;6.610;2023-04-15T10:34:31;12.40;1.00
16384;DHT22;8301;51.440;6.610;2023-04-15T10:37:03;12.30;1.00
16384;DHT22;8301;51.440;6.610;2023-04-15T10:42:09;12.50;1.00
16384;DHT22;8301;51.440;6.610;2023-04-15T10:44:36;12.20;1.00
16384;DHT22;8301;51.440;6.610;2023-04-15T10:47:13;12.20;1.00
16384;DHT22;8301;51.440;6.610;2023-04-15T10:49:43;12.00;1.00
16384;DHT22;8301;51.440;6.610;2023-04-15T10:52:10;12.00;1.00
16384;DHT22;8301;51.440;6.610;2023-04-15T10:54:37;12.00;1.00
16384;DHT22;8301;51.440;6.610;2023-04-15T10:57:07;12.00;1.00
16384;DHT22;8301;51.440;6.610;2023-04-15T11:02:08;12.50;1.00
16384;DHT22;8301;51.440;6.610;2023-04-15T11:07:46;13.40;99.90
16384;DHT22;8301;51.440;6.610;2023-04-15T11:12:56;12.80;1.00
16384;DHT22;8301;51.440;6.610;2023-04-15T11:15:36;12.30;1.00
16384;DHT22;8301;51.440;6.610;2023-04-15T11:18:19;12.10;1.00
16384;DHT22;8301;51.440;6.610;2023-04-15T11:20:48;12.20;1.00
16384;DHT22;8301;51.440;6.610;2023-04-15T11:26:04;12.00;1.00
16384;DHT22;8301;51.440;6.610;2023-04-15T11:28:39;11.90;1.00
16384;DHT22;8301;51.440;6.610;2023-04-15T11:31:07;11.90;1.00
16384;DHT22;8301;51.440;6.610;2023-04-15T11:33:35;11.70;1.00
16384;DHT22;8301;51.440;6.610;2023-04-15T11:36:11;11.60;16.20
16384;DHT22;8301;51.440;6.610;2023-04-15T11:38:41;11.30;99.90
16384;DHT22;8301;51.440;6.610;2023-04-15T11:41:07;11.30;99.90
16384;DHT22;8301;51.440;6.610;2023-04-15T11:43:34;11.40;99.90
16384;DHT22;8301;51.440;6.610;2023-04-15T11:46:01;11.40;99.90
16384;DHT22;8301;51.440;6.610;2023-04-15T11:48:31;11.60;99.90
16384;DHT22;8301;51.440;6.610;2023-04-15T11:50:59;11.70;1.00
16384;DHT22;8301;51.440;6.610;2023-04-15T11:53:42;11.50;1.00
16384;DHT22;8301;51.440;6.610;2023-04-15T11:56:15;11.50;1.00
16384;DHT22;8301;51.440;6.610;2023-04-15T11:58:41;11.50;1.00
16384;DHT22;8301;51.440;6.610;2023-04-15T12:01:08;11.50;44.50
16384;DHT22;8301;51.440;6.610;2023-04-15T12:03:36;11.70;1.00
16384;DHT22;8301;51.440;6.610;2023-04-15T12:06:22;11.70;1.00
16384;DHT22;8301;51.440;6.610;2023-04-15T12:11:19;11.50;1.00
16384;DHT22;8301;51.440;6.610;2023-04-15T12:13:47;11.70;90.20
16384;DHT22;8301;51.440;6.610;2023-04-15T12:16:17;11.60;1.00
16384;DHT22;8301;51.440;6.610;2023-04-15T12:18:45;11.50;25.80
16384;DHT22;8301;51.440;6.610;2023-04-15T12:21:13;11.60;52.20
16384;DHT22;8301;51.440;6.610;2023-04-15T12:26:29;11.50;1.00
16384;DHT22;8301;51.440;6.610;2023-04-15T12:29:01;11.50;49.50
16384;DHT22;8301;51.440;6.610;2023-04-15T12:31:28;11.50;99.90
16384;DHT22;8301;51.440;6.610;2023-04-15T12:33:55;11.60;67.20
16384;DHT22;8301;51.440;6.610;2023-04-15T12:36:29;11.40;99.90
16384;DHT22;8301;51.440;6.610;2023-04-15T12:38:58;11.50;96.40
16384;DHT22;8301;51.440;6.610;2023-04-15T12:41:25;11.40;98.90
16384;DHT22;8301;51.440;6.610;2023-04-15T12:43:52;11.40;99.90
16384;DHT22;8301;51.440;6.610;2023-04-15T12:46:18;11.40;99.90
16384;DHT22;8301;51.440;6.610;2023-04-15T12:48:45;11.20;99.90
16384;DHT22;8301;51.440;6.610;2023-04-15T12:51:12;11.10;1.00
16384;DHT22;8301;51.440;6.610;2023-04-15T12:53:39;11.10;1.00
16384;DHT22;8301;51.440;6.610;2023-04-15T12:56:07;11.10;26.90
16384;DHT22;8301;51.440;6.610;2023-04-15T12:58:33;11.20;1.00
16384;DHT22;8301;51.440;6.610;2023-04-15T13:01:01;11.20;99.90
16384;DHT22;8301;51.440;6.610;2023-04-15T13:03:36;11.30;1.00
16384;DHT22;8301;51.440;6.610;2023-04-15T13:06:03;11.40;99.90
16384;DHT22;8301;51.440;6.610;2023-04-15T13:08:30;11.30;99.90
16384;DHT22;8301;51.440;6.610;2023-04-15T13:10:57;11.20;1.00
16384;DHT22;8301;51.440;6.610;2023-04-15T13:13:24;11.40;99.90
16384;DHT22;8301;51.440;6.610;2023-04-15T13:15:51;11.30;99.90
16384;DHT22;8301;51.440;6.610;2023-04-15T13:18:20;11.30;99.90
16384;DHT22;8301;51.440;6.610;2023-04-15T13:20:50;11.60;44.10
16384;DHT22;8301;51.440;6.610;2023-04-15T13:23:17;11.60;99.90
16384;DHT22;8301;51.440;6.610;2023-04-15T13:25:44;11.70;17.20
16384;DHT22;8301;51.440;6.610;2023-04-15T13:28:10;11.80;1.00
16384;DHT22;8301;51.440;6.610;2023-04-15T13:30:38;11.90;1.00
16384;DHT22;8301;51.440;6.610;2023-04-15T13:33:11;11.90;1.00
16384;DHT22;8301;51.440;6.610;2023-04-15T13:35:39;11.90;1.00
16384;DHT22;8301;51.440;6.610;2023-04-15T13:38:07;11.80;13.60
16384;DHT22;8301;51.440;6.610;2023-04-15T13:40:34;11.80;1.00
16384;DHT22;8301;51.440;6.610;2023-04-15T13:43:01;11.80;21.50
16384;DHT22;8301;51.440;6.610;2023-04-15T13:45:29;11.60;99.90
16384;DHT22;8301;51.440;6.610;2023-04-15T13:47:55;11.60;46.30
16384;DHT22;8301;51.440;6.610;2023-04-15T13:50:22;11.50;99.90
16384;DHT22;8301;51.440;6.610;2023-04-15T13:52:49;11.30;99.90
16384;DHT22;8301;51.440;6.610;2023-04-15T13:55:16;11.20;99.90
16384;DHT22;8301;51.440;6.610;2023-04-15T13:57:43;11.10;1.00
16384;DHT22;8301;51.440;6.610;2023-04-15T14:00:11;11.00;1.00
16384;DHT22;8301;51.440;6.610;2023-04-15T14:02:39;10.90;1.00
16384;DHT22;8301;51.440;6.610;2023-04-15T14:05:07;10.80;1.00
16384;DHT22;8301;51.440;6.610;2023-04-15T14:07:34;10.70;20.30
16384;DHT22;8301;51.440;6.610;2023-04-15T14:10:01;10.60;99.90
16384;DHT22;8301;51.440;6.610;2023-04-15T14:12:28;10.60;1.00
16384;DHT22;8301;51.440;6.610;2023-04-15T14:14:56;10.60;1.00
16384;DHT22;8301;51.440;6.610;2023-04-15T14:17:22;10.60;99.90
16384;DHT22;8301;51.440;6.610;2023-04-15T14:19:50;10.70;99.90
16384;DHT22;8301;51.440;6.610;2023-04-15T14:22:16;10.80;7.90
16384;DHT22;8301;51.440;6.610;2023-04-15T14:24:44;10.80;1.00
16384;DHT22;8301;51.440;6.610;2023-04-15T14:27:10;10.70;1.00
16384;DHT22;8301;51.440;6.610;2023-04-15T14:29:37;10.70;1.00
16384;DHT22;8301;51.440;6.610;2023-04-15T14:32:04;10.60;92.90
16384;DHT22;8301;51.440;6.610;2023-04-15T14:34:31;10.50;1.00
16384;DHT22;8301;51.440;6.610;2023-04-15T14:36:59;10.50;17.10
16384;DHT22;8301;51.440;6.610;2023-04-15T14:39:26;10.50;99.90
16384;DHT22;8301;51.440;6.610;2023-04-15T14:41:53;10.60;22.20
16384;DHT22;8301;51.440;6.610;2023-04-15T14:44:21;10.60;1.00
16384;DHT22;8301;51.440;6.610;2023-04-15T14:46:49;10.60;18.50
16384;DHT22;8301;51.440;6.610;2023-04-15T14:49:16;10.50;99.90
16384;DHT22;8301;51.440;6.610;2023-04-15T14:51:47;10.60;1.00
16384;DHT22;8301;51.440;6.610;2023-04-15T14:56:45;10.80;52.80
16384;DHT22;8301;51.440;6.610;2023-04-15T14:59:18;10.80;1.00
16384;DHT22;8301;51.440;6.610;2023-04-15T15:01:51;10.80;1.00
16384;DHT22;8301;51.440;6.610;2023-04-15T15:04:18;10.80;1.00
16384;DHT22;8301;51.440;6.610;2023-04-15T15:06:45;10.90;1.00
16384;DHT22;8301;51.440;6.610;2023-04-15T15:09:12;11.00;1.00
16384;DHT22;8301;51.440;6.610;2023-04-15T15:11:40;10.80;1.00
16384;DHT22;8301;51.440;6.610;2023-04-15T15:14:08;10.90;1.00
16384;DHT22;8301;51.440;6.610;2023-04-15T15:16:35;10.90;1.00
16384;DHT22;8301;51.440;6.610;2023-04-15T15:19:03;10.90;99.90
16384;DHT22;8301;51.440;6.610;2023-04-15T15:21:30;10.80;1.00
16384;DHT22;8301;51.440;6.610;2023-04-15T15:24:01;10.80;1.00
16384;DHT22;8301;51.440;6.610;2023-04-15T15:26:31;10.80;1.00
16384;DHT22;8301;51.440;6.610;2023-04-15T15:28:58;10.70;1.00
16384;DHT22;8301;51.440;6.610;2023-04-15T15:31:24;10.60;1.00
16384;DHT22;8301;51.440;6.610;2023-04-15T15:33:51;10.60;94.70
16384;DHT22;8301;51.440;6.610;2023-04-15T15:36:19;10.60;1.00
16384;DHT22;8301;51.440;6.610;2023-04-15T15:38:47;10.60;1.00
16384;DHT22;8301;51.440;6.610;2023-04-15T15:41:15;10.60;1.00
16384;DHT22;8301;51.440;6.610;2023-04-15T15:43:41;10.60;1.00
16384;DHT22;8301;51.440;6.610;2023-04-15T15:46:08;10.60;1.00
16384;DHT22;8301;51.440;6.610;2023-04-15T15:48:35;10.50;1.00
16384;DHT22;8301;51.440;6.610;2023-04-15T15:51:03;10.60;99.90
16384;DHT22;8301;51.440;6.610;2023-04-15T15:53:31;10.40;1.00
16384;DHT22;8301;51.440;6.610;2023-04-15T15:55:58;10.30;99.90
16384;DHT22;8301;51.440;6.610;2023-04-15T15:58:24;10.20;1.00
16384;DHT22;8301;51.440;6.610;2023-04-15T16:00:51;10.20;1.00
16384;DHT22;8301;51.440;6.610;2023-04-15T16:03:21;10.20;99.90
16384;DHT22;8301;51.440;6.610;2023-04-15T16:05:48;10.20;1.00
16384;DHT22;8301;51.440;6.610;2023-04-15T16:08:14;10.20;99.90
16384;DHT22;8301;51.440;6.610;2023-04-15T16:10:43;10.20;1.00
16384;DHT22;8301;51.440;6.610;2023-04-15T16:13:10;10.10;1.00
16384;DHT22;8301;51.440;6.610;2023-04-15T16:15:38;10.10;99.90
16384;DHT22;8301;51.440;6.610;2023-04-15T16:20:36;10.00;1.00
16384;DHT22;8301;51.440;6.610;2023-04-15T16:23:10;10.00;99.90
16384;DHT22;8301;51.440;6.610;2023-04-15T16:25:34;10.00;1.00
16384;DHT22;8301;51.440;6.610;2023-04-15T16:28:01;10.00;1.00
16384;DHT22;8301;51.440;6.610;2023-04-15T16:30:28;9.90;1.00
16384;DHT22;8301;51.440;6.610;2023-04-15T16:32:55;9.90;99.90
16384;DHT22;8301;51.440;6.610;2023-04-15T16:35:23;9.80;1.00
16384;DHT22;8301;51.440;6.610;2023-04-15T16:37:50;9.80;1.00
16384;DHT22;8301;51.440;6.610;2023-04-15T16:40:17;9.70;59.40
16384;DHT22;8301;51.440;6.610;2023-04-15T16:42:44;9.70;1.00